createdAt,value
2023-05-20T00:02:30.658Z,102026.59
2023-05-20T00:05:00.794Z,102017.72
2023-05-20T00:07:30.966Z,102016.56
2023-05-20T00:10:01.103Z,102009.31
2023-05-20T00:12:31.241Z,102020.91
2023-05-20T00:15:01.436Z,102018.31
2023-05-20T00:17:34.120Z,102015.72
2023-05-20T00:20:05.923Z,102014.94
2023-05-20T00:22:36.203Z,102017.00
2023-05-20T00:25:06.519Z,102024.91
2023-05-20T00:27:36.640Z,102017.50
2023-05-20T00:30:07.074Z,102022.16
2023-05-20T00:32:39.982Z,102022.16
2023-05-20T00:35:11.855Z,102019.09
2023-05-20T00:37:41.746Z,102012.31
2023-05-20T00:40:14.951Z,102017.63
2023-05-20T00:42:45.590Z,102015.00
2023-05-20T00:45:15.805Z,102019.69
2023-05-20T00:47:48.972Z,102017.94
2023-05-20T00:50:21.110Z,102018.22
2023-05-20T00:52:51.957Z,102018.88
2023-05-20T00:55:22.285Z,102021.75
2023-05-20T00:57:53.134Z,102020.13
2023-05-20T01:00:23.201Z,102022.34
2023-05-20T01:02:56.260Z,102021.56
2023-05-20T01:05:26.270Z,102014.78
2023-05-20T01:07:56.909Z,102013.19
2023-05-20T01:10:32.182Z,102017.19
2023-05-20T01:13:07.747Z,102011.53
2023-05-20T01:15:38.829Z,102015.22
2023-05-20T01:18:13.714Z,102017.47
2023-05-20T01:20:46.203Z,102021.47
2023-05-20T01:23:18.779Z,102019.97
2023-05-20T01:25:48.889Z,102014.75
2023-05-20T01:28:19.400Z,102015.03
2023-05-20T01:30:55.453Z,102012.25
2023-05-20T01:33:28.905Z,102013.97
2023-05-20T01:35:59.657Z,102015.91
2023-05-20T01:38:33.187Z,102010.94
2023-05-20T01:41:05.982Z,102007.41
2023-05-20T01:43:38.717Z,102006.09
2023-05-20T01:46:09.850Z,102009.47
2023-05-20T01:48:39.849Z,102009.47
2023-05-20T01:51:09.918Z,102004.59
2023-05-20T01:53:42.470Z,102006.06
2023-05-20T01:56:12.416Z,102007.47
2023-05-20T01:58:42.398Z,102003.44
2023-05-20T02:01:12.457Z,102003.25
2023-05-20T02:03:42.392Z,102003.97
2023-05-20T02:06:12.495Z,102000.69
2023-05-20T02:08:45.187Z,102000.47
2023-05-20T02:11:15.102Z,101989.97
2023-05-20T02:13:45.099Z,101995.25
2023-05-20T02:16:15.149Z,101993.66
2023-05-20T02:18:45.702Z,101994.13
2023-05-20T02:21:15.712Z,101990.44
2023-05-20T02:23:48.328Z,101993.56
2023-05-20T02:26:18.545Z,101996.91
2023-05-20T02:28:51.086Z,101996.09
2023-05-20T02:31:21.668Z,101996.09
2023-05-20T02:33:51.784Z,101995.94
2023-05-20T02:36:24.651Z,101995.94
2023-05-20T02:38:57.493Z,101998.34
2023-05-20T02:41:27.527Z,101995.13
2023-05-20T02:43:57.637Z,101982.06
2023-05-20T02:46:27.560Z,101987.84
2023-05-20T02:48:57.567Z,101982.16
2023-05-20T02:51:28.707Z,101988.44
2023-05-20T02:54:01.417Z,101981.56
2023-05-20T02:56:32.827Z,101979.66
2023-05-20T02:59:03.801Z,101988.66
2023-05-20T03:01:34.075Z,101982.06
2023-05-20T03:04:04.939Z,101979.34
2023-05-20T03:06:34.996Z,101976.94
2023-05-20T03:09:07.593Z,101970.28
2023-05-20T03:11:37.635Z,101970.38
2023-05-20T03:14:07.546Z,101971.50
2023-05-20T03:16:37.520Z,101972.63
2023-05-20T03:19:07.720Z,101973.72
2023-05-20T03:21:38.180Z,101978.66
2023-05-20T03:24:10.982Z,101978.19
2023-05-20T03:26:43.429Z,101980.41
2023-05-20T03:29:13.775Z,101977.47
2023-05-20T03:31:44.003Z,101985.16
2023-05-20T03:34:14.043Z,101985.47
2023-05-20T03:36:44.140Z,101980.63
2023-05-20T03:39:16.828Z,101978.41
2023-05-20T03:41:47.071Z,101973.75
2023-05-20T03:44:17.604Z,101969.28
2023-05-20T03:46:47.574Z,101965.44
2023-05-20T03:49:17.588Z,101965.75
2023-05-20T03:51:48.638Z,101967.50
2023-05-20T03:54:21.341Z,101955.47
2023-05-20T03:56:52.188Z,101964.88
2023-05-20T03:59:22.590Z,101952.13
2023-05-20T04:01:52.568Z,101955.78
2023-05-20T04:04:22.894Z,101950.34
2023-05-20T04:06:53.079Z,101961.25
2023-05-20T04:09:25.948Z,101955.78
2023-05-20T04:11:55.908Z,101949.00
2023-05-20T04:14:26.091Z,101948.81
2023-05-20T04:16:57.605Z,101948.81
2023-05-20T04:19:28.690Z,101958.94
2023-05-20T04:21:59.311Z,101962.25
2023-05-20T04:24:32.088Z,101965.28
2023-05-20T04:27:02.796Z,101972.34
2023-05-20T04:29:34.575Z,101973.47
2023-05-20T04:32:04.901Z,101970.16
2023-05-20T04:34:35.363Z,101967.91
2023-05-20T04:37:08.121Z,101963.59
2023-05-20T04:39:41.279Z,101965.19
2023-05-20T04:42:11.539Z,101967.13
2023-05-20T04:44:42.428Z,101968.50
2023-05-20T04:47:12.497Z,101970.16
2023-05-20T04:49:42.574Z,101977.22
2023-05-20T04:52:12.550Z,101980.44
2023-05-20T04:54:45.323Z,101968.91
2023-05-20T04:57:15.256Z,101959.03
2023-05-20T04:59:45.897Z,101963.03
2023-05-20T05:02:16.234Z,101963.84
2023-05-20T05:04:46.311Z,101967.91
2023-05-20T05:07:16.249Z,101964.06
2023-05-20T05:09:48.989Z,101962.13
2023-05-20T05:12:18.906Z,101959.91
2023-05-20T05:14:48.937Z,101954.97
2023-05-20T05:17:18.904Z,101958.19
2023-05-20T05:19:49.108Z,101954.03
2023-05-20T05:22:19.104Z,101949.38
2023-05-20T05:24:51.691Z,101949.91
2023-05-20T05:27:23.178Z,101943.34
2023-05-20T05:29:53.459Z,101942.22
2023-05-20T05:32:23.525Z,101943.81
2023-05-20T05:34:53.536Z,101939.66
2023-05-20T05:37:23.771Z,101941.00
2023-05-20T05:39:56.414Z,101935.91
2023-05-20T05:42:26.355Z,101947.81
2023-05-20T05:44:56.629Z,101935.66
2023-05-20T05:47:30.034Z,101937.47
2023-05-20T05:50:00.298Z,101931.59
2023-05-20T05:52:30.638Z,101931.97
2023-05-20T05:55:03.183Z,101922.84
2023-05-20T05:57:33.195Z,101932.84
2023-05-20T06:00:04.966Z,101927.25
2023-05-20T06:02:36.502Z,101928.56
2023-05-20T06:05:06.940Z,101937.94
2023-05-20T06:07:36.981Z,101928.50
2023-05-20T06:10:10.915Z,101921.31
2023-05-20T06:12:40.965Z,101925.50
2023-05-20T06:15:12.446Z,101922.66
2023-05-20T06:17:42.610Z,101915.94
2023-05-20T06:20:13.941Z,101911.81
2023-05-20T06:22:44.055Z,101919.59
2023-05-20T06:25:17.527Z,101917.38
2023-05-20T06:27:47.453Z,101914.06
2023-05-20T06:30:18.068Z,101906.28
2023-05-20T06:32:49.236Z,101905.00
2023-05-20T06:35:19.676Z,101902.88
2023-05-20T06:37:49.543Z,101902.50
2023-05-20T06:40:22.343Z,101901.84
2023-05-20T06:42:52.282Z,101891.00
2023-05-20T06:45:22.208Z,101897.06
2023-05-20T06:47:54.539Z,101889.22
2023-05-20T06:50:25.269Z,101885.13
2023-05-20T06:52:55.295Z,101885.28
2023-05-20T06:55:27.988Z,101878.22
2023-05-20T06:57:58.415Z,101888.13
2023-05-20T07:00:28.358Z,101883.28
2023-05-20T07:02:58.372Z,101875.47
2023-05-20T07:05:29.237Z,101873.84
2023-05-20T07:07:59.212Z,101874.88
2023-05-20T07:10:32.912Z,101873.22
2023-05-20T07:13:03.368Z,101871.19
2023-05-20T07:15:33.636Z,101882.56
2023-05-20T07:18:04.221Z,101877.59
2023-05-20T07:20:34.212Z,101873.22
2023-05-20T07:23:04.454Z,101878.56
2023-05-20T07:25:37.246Z,101882.34
2023-05-20T07:28:07.694Z,101876.03
2023-05-20T07:30:37.926Z,101870.53
2023-05-20T07:33:07.937Z,101847.22
2023-05-20T07:35:37.982Z,101868.53
2023-05-20T07:38:08.144Z,101858.84
2023-05-20T07:40:40.938Z,101855.88
2023-05-20T07:43:11.201Z,101851.91
2023-05-20T07:45:44.671Z,101858.78
2023-05-20T07:48:14.667Z,101851.09
2023-05-20T07:50:44.771Z,101854.59
2023-05-20T07:53:14.756Z,101849.19
2023-05-20T07:55:48.947Z,101846.25
2023-05-20T07:58:19.000Z,101852.91
2023-05-20T08:00:49.047Z,101849.44
2023-05-20T08:03:19.924Z,101851.50
2023-05-20T08:05:49.922Z,101847.72
2023-05-20T08:08:19.911Z,101843.25
2023-05-20T08:10:54.859Z,101851.84
2023-05-20T08:13:24.964Z,101850.13
2023-05-20T08:15:56.670Z,101859.31
2023-05-20T08:18:27.793Z,101850.81
2023-05-20T08:20:58.005Z,101839.34
2023-05-20T08:23:28.179Z,101840.38
2023-05-20T08:26:02.462Z,101838.19
2023-05-20T08:28:32.476Z,101841.31
2023-05-20T08:31:04.995Z,101841.19
2023-05-20T08:33:35.117Z,101838.41
2023-05-20T08:36:05.281Z,101837.25
2023-05-20T08:38:38.186Z,101837.69
2023-05-20T08:41:10.853Z,101838.72
2023-05-20T08:43:40.926Z,101834.94
2023-05-20T08:46:11.864Z,101837.41
2023-05-20T08:48:43.387Z,101840.06
2023-05-20T08:51:14.636Z,101836.69
2023-05-20T08:53:44.942Z,101828.44
2023-05-20T08:56:19.135Z,101840.13
2023-05-20T08:58:49.790Z,101828.31
2023-05-20T09:01:19.841Z,101827.47
2023-05-20T09:03:49.839Z,101837.72
2023-05-20T09:06:21.304Z,101832.41
2023-05-20T09:08:52.999Z,101837.22
2023-05-20T09:11:25.627Z,101834.38
2023-05-20T09:13:56.579Z,101833.09
2023-05-20T09:16:28.806Z,101834.34
2023-05-20T09:18:59.669Z,101829.03
2023-05-20T09:21:30.425Z,101829.66
2023-05-20T09:24:00.490Z,101834.28
2023-05-20T09:26:33.393Z,101838.06
2023-05-20T09:29:03.577Z,101836.63
2023-05-20T09:31:35.951Z,101833.19
2023-05-20T09:34:06.353Z,101831.78
2023-05-20T09:36:38.626Z,101817.88
2023-05-20T09:39:12.897Z,101829.00
2023-05-20T09:41:53.462Z,101844.66
2023-05-20T09:44:25.175Z,101838.53
2023-05-20T09:46:56.366Z,101834.09
2023-05-20T09:49:28.203Z,101841.38
2023-05-20T09:52:00.180Z,101836.03
2023-05-20T09:54:31.627Z,101849.00
2023-05-20T09:57:06.552Z,101828.19
2023-05-20T09:59:38.665Z,101841.53
2023-05-20T10:02:10.008Z,101827.84
2023-05-20T10:04:46.073Z,101822.63
2023-05-20T10:07:42.572Z,101827.66
2023-05-20T10:10:24.391Z,101821.28
2023-05-20T10:13:09.284Z,101823.41
2023-05-20T10:15:51.903Z,101821.97
2023-05-20T10:18:36.484Z,101824.47
2023-05-20T10:21:09.736Z,101815.47
2023-05-20T10:23:40.027Z,101810.75
2023-05-20T10:26:10.426Z,101810.59
2023-05-20T10:28:44.638Z,101812.19
2023-05-20T10:31:25.954Z,101804.00
2023-05-20T10:33:57.118Z,101800.00
2023-05-20T10:36:30.840Z,101800.53
2023-05-20T10:39:02.495Z,101809.91
2023-05-20T10:41:35.140Z,101805.72
2023-05-20T10:44:09.613Z,101811.47
2023-05-20T10:46:57.194Z,101798.66
2023-05-20T10:49:37.869Z,101804.72
2023-05-20T10:52:10.275Z,101794.03
2023-05-20T10:54:46.018Z,101787.06
2023-05-20T10:57:16.212Z,101788.16
2023-05-20T10:59:48.796Z,101796.63
2023-05-20T11:02:19.990Z,101789.94
2023-05-20T11:04:50.121Z,101786.19
2023-05-20T11:07:30.741Z,101787.72
2023-05-20T11:10:01.171Z,101775.44
2023-05-20T11:12:31.525Z,101785.13
2023-05-20T11:15:07.137Z,101795.06
2023-05-20T11:17:37.167Z,101780.91
2023-05-20T11:20:08.140Z,101785.63
2023-05-20T11:22:38.094Z,101782.59
2023-05-20T11:25:09.283Z,101769.53
2023-05-20T11:27:42.395Z,101772.50
2023-05-20T11:30:17.031Z,101772.59
2023-05-20T11:32:47.483Z,101781.81
2023-05-20T11:35:26.182Z,101772.34
2023-05-20T11:38:00.549Z,101773.31
2023-05-20T11:40:38.970Z,101767.50
2023-05-20T11:43:17.764Z,101768.59
2023-05-20T11:45:55.503Z,101768.97
2023-05-20T11:48:25.561Z,101755.31
2023-05-20T11:50:57.770Z,101752.16
2023-05-20T11:53:28.814Z,101753.59
2023-05-20T11:56:01.483Z,101744.75
2023-05-20T11:58:33.968Z,101728.88
2023-05-20T12:01:21.068Z,101728.38
2023-05-20T12:03:52.465Z,101707.94
2023-05-20T12:06:23.182Z,101713.56
2023-05-20T12:08:53.203Z,101714.41
2023-05-20T12:11:23.385Z,101706.78
2023-05-20T12:13:53.562Z,101708.53
2023-05-20T12:16:29.610Z,101710.25
2023-05-20T12:18:59.742Z,101697.84
2023-05-20T12:21:30.034Z,101701.34
2023-05-20T12:24:00.281Z,101698.44
2023-05-20T12:26:32.509Z,101696.03
2023-05-20T12:29:04.005Z,101687.38
2023-05-20T12:31:36.689Z,101688.25
2023-05-20T12:34:14.299Z,101677.22
2023-05-20T12:36:44.613Z,101681.66
2023-05-20T12:39:15.398Z,101685.59
2023-05-20T12:41:45.379Z,101677.38
2023-05-20T12:44:19.023Z,101666.88
2023-05-20T12:46:51.772Z,101670.59
2023-05-20T12:49:21.789Z,101671.91
2023-05-20T12:51:51.704Z,101660.59
2023-05-20T12:54:21.666Z,101668.06
2023-05-20T12:56:51.694Z,101670.03
2023-05-20T12:59:21.633Z,101662.13
2023-05-20T13:01:54.273Z,101664.56
2023-05-20T13:04:24.959Z,101673.44
2023-05-20T13:06:58.153Z,101673.47
2023-05-20T13:09:28.154Z,101673.91
2023-05-20T13:11:58.289Z,101659.81
2023-05-20T13:14:28.170Z,101665.78
2023-05-20T13:17:03.588Z,101651.53
2023-05-20T13:19:34.049Z,101655.63
2023-05-20T13:22:04.084Z,101653.66
2023-05-20T13:24:34.019Z,101653.66
2023-05-20T13:27:04.381Z,101654.81
2023-05-20T13:29:34.556Z,101645.16
2023-05-20T13:32:07.568Z,101649.06
2023-05-20T13:34:37.889Z,101649.47
2023-05-20T13:37:08.674Z,101661.41
2023-05-20T13:39:38.737Z,101646.69
2023-05-20T13:42:09.289Z,101643.94
2023-05-20T13:44:39.269Z,101639.19
2023-05-20T13:47:12.027Z,101648.25
2023-05-20T13:49:44.360Z,101641.94
2023-05-20T13:52:14.329Z,101632.38
2023-05-20T13:54:47.140Z,101629.16
2023-05-20T13:57:17.098Z,101635.88
2023-05-20T13:59:47.059Z,101633.91
2023-05-20T14:02:20.187Z,101623.19
2023-05-20T14:04:50.197Z,101614.84
2023-05-20T14:07:20.067Z,101611.63
2023-05-20T14:09:50.052Z,101602.50
2023-05-20T14:12:20.076Z,101608.34
2023-05-20T14:14:52.250Z,101605.22
2023-05-20T14:17:24.857Z,101613.56
2023-05-20T14:19:54.772Z,101602.44
2023-05-20T14:22:24.768Z,101606.38
2023-05-20T14:24:54.704Z,101603.66
2023-05-20T14:27:24.699Z,101599.84
2023-05-20T14:29:54.748Z,101598.75
2023-05-20T14:32:27.519Z,101594.41
2023-05-20T14:34:57.521Z,101592.81
2023-05-20T14:37:28.306Z,101597.53
2023-05-20T14:39:58.405Z,101591.13
2023-05-20T14:42:28.545Z,101584.84
2023-05-20T14:44:58.535Z,101586.09
2023-05-20T14:47:33.871Z,101572.22
2023-05-20T14:50:03.989Z,101580.94
2023-05-20T14:52:34.061Z,101578.50
2023-05-20T14:55:04.078Z,101580.06
2023-05-20T14:57:34.160Z,101580.00
2023-05-20T15:00:04.358Z,101574.84
2023-05-20T15:02:37.006Z,101585.59
2023-05-20T15:05:07.386Z,101582.47
2023-05-20T15:07:37.307Z,101580.50
2023-05-20T15:10:08.193Z,101584.81
2023-05-20T15:12:38.242Z,101585.59
2023-05-20T15:15:09.457Z,101580.06
2023-05-20T15:17:42.029Z,101589.56
2023-05-20T15:20:13.251Z,101589.66
2023-05-20T15:22:45.950Z,101577.50
2023-05-20T15:25:15.906Z,101581.91
2023-05-20T15:27:46.103Z,101583.53
2023-05-20T15:30:17.657Z,101596.22
2023-05-20T15:32:50.420Z,101590.63
2023-05-20T15:35:21.026Z,101581.50
2023-05-20T15:37:50.977Z,101579.84
2023-05-20T15:40:21.966Z,101584.09
2023-05-20T15:42:51.936Z,101586.09
2023-05-20T15:45:22.077Z,101584.84
2023-05-20T15:47:55.036Z,101582.88
2023-05-20T15:50:26.225Z,101581.78
2023-05-20T15:52:59.649Z,101570.00
2023-05-20T15:55:29.681Z,101570.78
2023-05-20T15:57:59.650Z,101567.59
2023-05-20T16:00:29.749Z,101567.63
2023-05-20T16:03:02.538Z,101567.22
2023-05-20T16:05:32.693Z,101560.38
2023-05-20T16:08:02.985Z,101559.63
2023-05-20T16:10:34.853Z,101552.09
2023-05-20T16:13:08.138Z,101555.66
2023-05-20T16:15:38.811Z,101567.50
2023-05-20T16:18:11.530Z,101563.16
2023-05-20T16:20:41.724Z,101563.50
2023-05-20T16:23:11.772Z,101568.25
2023-05-20T16:25:41.657Z,101554.00
2023-05-20T16:28:11.665Z,101554.00
2023-05-20T16:30:41.714Z,101559.59
2023-05-20T16:33:21.506Z,101553.69
2023-05-20T16:35:51.613Z,101553.28
2023-05-20T16:38:21.996Z,101552.47
2023-05-20T16:40:52.253Z,101547.31
2023-05-20T16:43:22.176Z,101558.72
2023-05-20T16:45:52.339Z,101554.25
2023-05-20T16:48:26.929Z,101560.16
2023-05-20T16:50:57.003Z,101562.88
2023-05-20T16:53:27.388Z,101560.50
2023-05-20T16:55:58.027Z,101565.66
2023-05-20T16:58:28.246Z,101571.09
2023-05-20T17:00:58.414Z,101564.34
2023-05-20T17:03:31.241Z,101573.44
2023-05-20T17:06:01.268Z,101575.78
2023-05-20T17:08:31.930Z,101584.88
2023-05-20T17:11:03.155Z,101596.31
2023-05-20T17:13:33.236Z,101595.44
2023-05-20T17:16:03.260Z,101592.19
2023-05-20T17:18:35.882Z,101598.88
2023-05-20T17:21:06.173Z,101599.19
2023-05-20T17:23:36.162Z,101604.22
2023-05-20T17:26:06.642Z,101608.41
2023-05-20T17:28:36.601Z,101613.13
2023-05-20T17:31:06.741Z,101611.16
2023-05-20T17:33:39.949Z,101603.16
2023-05-20T17:36:10.663Z,101601.53
2023-05-20T17:38:40.756Z,101608.16
2023-05-20T17:41:10.982Z,101600.53
2023-05-20T17:43:40.964Z,101598.53
2023-05-20T17:46:10.927Z,101597.34
2023-05-20T17:48:45.079Z,101597.97
2023-05-20T17:51:15.160Z,101603.88
2023-05-20T17:53:45.130Z,101595.56
2023-05-20T17:56:15.968Z,101602.53
2023-05-20T17:58:48.381Z,101595.63
2023-05-20T18:01:18.441Z,101605.91
2023-05-20T18:03:51.304Z,101595.50
2023-05-20T18:06:21.464Z,101603.31
2023-05-20T18:08:51.853Z,101606.34
2023-05-20T18:11:22.243Z,101605.44
2023-05-20T18:13:52.467Z,101607.69
2023-05-20T18:16:22.538Z,101613.09
2023-05-20T18:18:55.220Z,101600.22
2023-05-20T18:21:26.754Z,101609.34
2023-05-20T18:23:56.715Z,101609.03
2023-05-20T18:26:27.153Z,101608.72
2023-05-20T18:28:57.137Z,101605.59
2023-05-20T18:31:27.285Z,101603.09
2023-05-20T18:33:59.868Z,101601.50
2023-05-20T18:36:31.989Z,101598.28
2023-05-20T18:39:01.912Z,101599.47
2023-05-20T18:41:45.820Z,101614.44
2023-05-20T18:44:17.786Z,101607.31
2023-05-20T18:46:48.099Z,101610.09
2023-05-20T18:49:20.694Z,101611.19
2023-05-20T18:51:50.752Z,101606.41
2023-05-20T18:54:20.688Z,101610.28
2023-05-20T18:56:51.504Z,101606.97
2023-05-20T18:59:23.293Z,101615.88
2023-05-20T19:01:54.460Z,101619.22
2023-05-20T19:04:27.449Z,101615.16
2023-05-20T19:06:57.655Z,101622.91
2023-05-20T19:09:27.591Z,101616.44
2023-05-20T19:11:59.324Z,101619.44
2023-05-20T19:14:29.424Z,101632.66
2023-05-20T19:17:01.116Z,101626.63
2023-05-20T19:19:33.871Z,101618.19
2023-05-20T19:22:03.867Z,101619.50
2023-05-20T19:24:35.482Z,101620.22
2023-05-20T19:27:05.923Z,101617.03
2023-05-20T19:29:36.040Z,101610.63
2023-05-20T19:32:06.234Z,101619.28
2023-05-20T19:34:38.827Z,101618.38
2023-05-20T19:37:08.969Z,101611.28
2023-05-20T19:39:39.266Z,101616.72
2023-05-20T19:42:09.355Z,101614.69
2023-05-20T19:44:39.329Z,101611.50
2023-05-20T19:47:09.476Z,101618.03
2023-05-20T19:49:42.174Z,101620.63
2023-05-20T19:52:12.395Z,101617.81
2023-05-20T19:54:43.249Z,101624.91
2023-05-20T19:57:13.624Z,101624.75
2023-05-20T19:59:43.777Z,101616.75
2023-05-20T20:02:15.083Z,101621.41
2023-05-20T20:04:48.115Z,101629.56
2023-05-20T20:07:18.015Z,101625.59
2023-05-20T20:09:49.294Z,101617.84
2023-05-20T20:12:19.399Z,101619.19
2023-05-20T20:14:49.467Z,101626.22
2023-05-20T20:17:20.716Z,101626.91
2023-05-20T20:19:55.965Z,101626.91
2023-05-20T20:22:26.090Z,101626.03
2023-05-20T20:24:56.104Z,101634.56
2023-05-20T20:27:27.156Z,101634.47
2023-05-20T20:29:57.357Z,101639.88
2023-05-20T20:32:27.552Z,101638.97
2023-05-20T20:35:00.918Z,101634.91
2023-05-20T20:37:30.918Z,101630.00
2023-05-20T20:40:03.916Z,101627.38
2023-05-20T20:42:34.083Z,101638.19
2023-05-20T20:45:04.556Z,101619.22
2023-05-20T20:47:34.711Z,101621.50
2023-05-20T20:50:08.160Z,101621.28
2023-05-20T20:52:39.180Z,101619.97
2023-05-20T20:55:10.187Z,101627.31
2023-05-20T20:57:42.249Z,101623.22
2023-05-20T21:00:14.466Z,101618.22
2023-05-20T21:02:44.517Z,101610.91
2023-05-20T21:05:17.752Z,101610.00
2023-05-20T21:07:50.314Z,101606.34
2023-05-20T21:10:20.905Z,101605.00
2023-05-20T21:12:50.894Z,101609.78
2023-05-20T21:15:20.896Z,101613.03
2023-05-20T21:17:50.891Z,101608.78
2023-05-20T21:20:23.679Z,101606.41
2023-05-20T21:22:53.724Z,101596.91
2023-05-20T21:25:23.695Z,101606.19
2023-05-20T21:27:53.639Z,101606.75
2023-05-20T21:30:24.803Z,101599.56
2023-05-20T21:32:54.800Z,101596.34
2023-05-20T21:35:27.392Z,101594.06
2023-05-20T21:37:57.472Z,101599.91
2023-05-20T21:40:27.408Z,101590.84
2023-05-20T21:42:57.376Z,101595.91
2023-05-20T21:45:27.292Z,101589.97
2023-05-20T21:47:57.448Z,101594.06
2023-05-20T21:50:30.222Z,101586.41
2023-05-20T21:53:00.152Z,101585.50
2023-05-20T21:55:30.106Z,101580.69
2023-05-20T21:58:00.082Z,101585.38
2023-05-20T22:00:30.199Z,101575.91
2023-05-20T22:03:01.384Z,101577.84
2023-05-20T22:05:34.869Z,101580.81
2023-05-20T22:08:05.145Z,101575.66
2023-05-20T22:10:37.885Z,101574.53
2023-05-20T22:13:11.163Z,101578.88
2023-05-20T22:15:41.152Z,101573.25
2023-05-20T22:18:12.638Z,101569.94
2023-05-20T22:20:45.259Z,101561.13
2023-05-20T22:23:15.232Z,101564.06
2023-05-20T22:25:45.312Z,101560.28
2023-05-20T22:28:16.475Z,101554.91
2023-05-20T22:30:46.718Z,101553.88
2023-05-20T22:33:16.940Z,101552.84
2023-05-20T22:35:49.530Z,101558.97
2023-05-20T22:38:19.501Z,101555.78
2023-05-20T22:40:50.733Z,101551.31
2023-05-20T22:43:23.448Z,101548.56
2023-05-20T22:45:53.522Z,101536.00
2023-05-20T22:48:24.165Z,101538.75
2023-05-20T22:50:57.033Z,101536.00
2023-05-20T22:53:27.243Z,101542.97
2023-05-20T22:55:57.186Z,101533.50
2023-05-20T22:58:27.165Z,101530.63
2023-05-20T23:00:57.287Z,101534.38
2023-05-20T23:03:27.395Z,101519.59
2023-05-20T23:05:59.901Z,101518.00
2023-05-20T23:08:30.092Z,101520.94
2023-05-20T23:11:00.283Z,101516.84
2023-05-20T23:13:30.251Z,101517.97
2023-05-20T23:16:01.648Z,101519.78
2023-05-20T23:18:31.635Z,101511.66
2023-05-20T23:21:04.599Z,101508.97
2023-05-20T23:23:34.634Z,101518.19
2023-05-20T23:26:05.369Z,101507.59
2023-05-20T23:28:35.340Z,101513.38
2023-05-20T23:31:05.445Z,101503.91
2023-05-20T23:33:35.484Z,101508.44
2023-05-20T23:36:09.550Z,101498.97
2023-05-20T23:38:39.683Z,101498.16
2023-05-20T23:41:09.708Z,101489.75
2023-05-20T23:43:39.767Z,101484.38
2023-05-20T23:46:10.022Z,101484.72
2023-05-20T23:48:40.062Z,101483.13
2023-05-20T23:51:13.770Z,101474.22
2023-05-20T23:53:43.901Z,101480.38
2023-05-20T23:56:13.815Z,101468.47
2023-05-20T23:58:43.836Z,101470.75
